Time;durP1;ratioP1;P1;durP2;ratioP2;P2;SDS_P1;SDS_P2;PMS_P1;PMS_P2;Temp;Humidity;BMP_temperature;BMP_pressure;BME280_temperature;BME280_humidity;BME280_pressure;Samples;Min_cycle;Max_cycle;Signal;HPM_P1;HPM_P2
2024/01/03 00:00:22;;;;;;;2.63;1.30;;;;;;;8.87;100.00;98235.44;4985032;28;20191;-69
2024/01/03 00:02:59;;;;;;;1.33;0.77;;;;;;;8.82;100.00;98230.00;4970113;28;20298;-69
2024/01/03 00:05:56;;;;;;;1.00;0.90;;;;;;;8.84;100.00;98222.50;4976256;28;20223;-69
2024/01/03 00:08:44;;;;;;;0.80;0.50;;;;;;;8.72;100.00;98219.94;4957592;28;20245;-67
2024/01/03 00:11:29;;;;;;;1.23;1.00;;;;;;;8.80;100.00;98221.38;4975559;28;20669;-67
2024/01/03 00:14:29;;;;;;;3.83;1.30;;;;;;;8.77;100.00;98216.47;4981070;28;20672;-67
2024/01/03 00:17:09;;;;;;;1.20;0.80;;;;;;;8.76;100.00;98214.88;4984063;28;20199;-67
2024/01/03 00:19:47;;;;;;;3.08;0.68;;;;;;;8.76;100.00;98217.56;4984448;28;20294;-68
2024/01/03 00:22:24;;;;;;;1.00;0.60;;;;;;;8.70;100.00;98215.88;4981331;28;20199;-67
2024/01/03 00:25:12;;;;;;;1.45;1.13;;;;;;;8.76;100.00;98204.09;4962750;29;20216;-67
2024/01/03 00:27:48;;;;;;;2.78;2.58;;;;;;;8.70;100.00;98200.53;4966363;28;20267;-68
2024/01/03 00:30:28;;;;;;;0.95;0.80;;;;;;;8.76;100.00;98208.66;4975096;28;20571;-67
2024/01/03 00:33:03;;;;;;;1.55;1.40;;;;;;;8.76;100.00;98203.28;4976375;28;20219;-67
2024/01/03 00:35:45;;;;;;;1.10;0.60;;;;;;;8.76;100.00;98203.28;4969434;28;20219;-68
2024/01/03 00:38:25;;;;;;;2.50;2.30;;;;;;;8.76;100.00;98201.38;4961742;28;20192;-68
2024/01/03 00:41:01;;;;;;;1.00;0.85;;;;;;;8.79;100.00;98210.84;4965020;28;20861;-69
2024/01/03 00:43:39;;;;;;;1.00;0.75;;;;;;;8.78;100.00;98201.13;4969028;28;20210;-67
2024/01/03 00:46:17;;;;;;;0.90;0.65;;;;;;;8.73;100.00;98200.00;4966818;28;20295;-67
2024/01/03 00:48:51;;;;;;;1.80;0.60;;;;;;;8.76;100.00;98204.09;4957213;28;20701;-68
2024/01/03 00:51:27;;;;;;;1.42;1.20;;;;;;;8.84;100.00;98200.91;4974290;28;20195;-68
2024/01/03 00:54:05;;;;;;;1.80;0.95;;;;;;;8.79;100.00;98200.88;4970640;28;20194;-67
2024/01/03 00:56:43;;;;;;;0.80;0.43;;;;;;;8.83;100.00;98204.66;4972693;28;20601;-67
2024/01/03 00:59:18;;;;;;;2.03;1.30;;;;;;;8.88;100.00;98193.13;4965277;28;20547;-69
2024/01/03 01:01:52;;;;;;;0.80;0.50;;;;;;;8.82;100.00;98203.03;4970678;28;20203;-68
2024/01/03 01:04:28;;;;;;;1.10;0.60;;;;;;;8.93;100.00;98193.97;4949717;28;20630;-67
2024/01/03 01:07:08;;;;;;;1.58;0.88;;;;;;;8.90;100.00;98199.91;4966461;28;20366;-68
2024/01/03 01:09:57;;;;;;;1.70;1.13;;;;;;;8.94;100.00;98202.88;4970619;28;20575;-68
2024/01/03 01:12:31;;;;;;;1.42;0.70;;;;;;;8.97;100.00;98205.88;4948684;28;20290;-68
2024/01/03 01:15:08;;;;;;;1.05;0.65;;;;;;;8.98;100.00;98206.69;4968492;28;20262;-68
2024/01/03 01:17:41;;;;;;;0.90;0.60;;;;;;;9.06;100.00;98217.00;4963895;28;20195;-68
2024/01/03 01:20:17;;;;;;;1.17;0.70;;;;;;;8.97;100.00;98203.19;4973829;28;20203;-67
2024/01/03 01:22:53;;;;;;;0.93;0.60;;;;;;;8.92;100.00;98213.09;4950591;28;20563;-68
2024/01/03 01:25:41;;;;;;;0.98;0.70;;;;;;;8.86;100.00;98208.75;4971216;28;20215;-67
2024/01/03 01:28:14;;;;;;;0.80;0.50;;;;;;;8.78;100.00;98212.72;4964565;28;20212;-68
2024/01/03 01:30:51;;;;;;;2.08;1.27;;;;;;;8.65;100.00;98205.03;4962413;28;20278;-68
2024/01/03 01:33:25;;;;;;;1.73;1.02;;;;;;;8.74;100.00;98217.00;4964188;28;20187;-67
2024/01/03 01:36:04;;;;;;;0.80;0.50;;;;;;;8.65;100.00;98210.44;4965588;28;20702;-66
2024/01/03 01:38:37;;;;;;;1.38;1.00;;;;;;;8.82;100.00;98224.63;4968270;28;20187;-66
2024/01/03 01:41:15;;;;;;;1.10;0.90;;;;;;;8.81;100.00;98222.97;4966154;28;20664;-66
2024/01/03 01:43:53;;;;;;;0.80;0.60;;;;;;;8.94;100.00;98232.56;4964869;28;20230;-67
2024/01/03 01:46:27;;;;;;;0.82;0.60;;;;;;;8.89;100.00;98233.31;4977879;28;20235;-68
2024/01/03 01:49:04;;;;;;;2.75;0.80;;;;;;;8.90;100.00;98229.56;4974710;28;20662;-68
2024/01/03 01:52:02;;;;;;;1.02;0.73;;;;;;;8.89;100.00;98227.94;4951796;28;20287;-69
2024/01/03 01:54:36;;;;;;;0.80;0.60;;;;;;;8.81;100.00;98228.38;4956777;28;20286;-67
2024/01/03 01:57:15;;;;;;;1.20;0.50;;;;;;;8.61;100.00;98222.81;4966738;28;20253;-65
2024/01/03 01:59:51;;;;;;;0.80;0.40;;;;;;;8.59;100.00;98222.22;4969669;28;20195;-68
2024/01/03 02:02:41;;;;;;;0.90;0.50;;;;;;;8.52;100.00;98229.72;4968929;28;20206;-68
2024/01/03 02:05:14;;;;;;;1.25;1.15;;;;;;;8.56;100.00;98223.56;4965633;28;20215;-66
2024/01/03 02:07:54;;;;;;;1.27;0.60;;;;;;;8.56;100.00;98217.34;4971294;28;20545;-65
2024/01/03 02:10:33;;;;;;;0.80;0.50;;;;;;;8.59;100.00;98214.13;4971044;28;20200;-68
2024/01/03 02:13:13;;;;;;;0.93;0.70;;;;;;;8.45;100.00;98215.63;4971933;28;20195;-69
2024/01/03 02:15:45;;;;;;;0.80;0.70;;;;;;;8.61;100.00;98222.81;4970722;28;20314;-66
2024/01/03 02:18:21;;;;;;;1.00;0.80;;;;;;;8.44;100.00;98222.06;4967582;28;20192;-67
2024/01/03 02:21:00;;;;;;;1.23;0.50;;;;;;;8.49;100.00;98227.50;4967150;28;20262;-68
2024/01/03 02:23:48;;;;;;;0.80;0.50;;;;;;;8.44;100.00;98225.56;4972105;28;20257;-68
2024/01/03 02:26:21;;;;;;;1.02;0.73;;;;;;;8.50;100.00;98224.56;4967431;28;20243;-67
2024/01/03 02:29:00;;;;;;;0.90;0.65;;;;;;;8.55;100.00;98224.63;4953617;28;20232;-64
2024/01/03 02:31:33;;;;;;;1.00;0.57;;;;;;;8.61;100.00;98217.41;4966590;28;20311;-68
2024/01/03 02:34:12;;;;;;;0.93;0.70;;;;;;;8.70;100.00;98221.28;4967923;28;20203;-68
2024/01/03 02:36:45;;;;;;;0.90;0.70;;;;;;;8.74;100.00;98227.78;4971201;28;20236;-67
2024/01/03 02:39:26;;;;;;;0.80;0.40;;;;;;;8.78;100.00;98223.50;4972678;28;20205;-67
2024/01/03 02:42:05;;;;;;;3.15;1.00;;;;;;;8.69;100.00;98219.63;4948195;28;20195;-68
2024/01/03 02:44:39;;;;;;;0.80;0.50;;;;;;;8.72;100.00;98227.19;4945281;28;20200;-66
2024/01/03 02:47:15;;;;;;;3.53;0.80;;;;;;;8.89;100.00;98235.19;4939207;29;20569;-67
2024/01/03 02:49:54;;;;;;;0.90;0.70;;;;;;;8.89;100.00;98235.19;4964449;28;20565;-68
2024/01/03 02:52:30;;;;;;;1.27;0.60;;;;;;;9.03;100.00;98231.81;4959666;28;20661;-67
2024/01/03 02:55:07;;;;;;;1.25;0.73;;;;;;;9.09;100.00;98225.41;4969958;28;20243;-68
2024/01/03 02:57:41;;;;;;;0.90;0.60;;;;;;;9.08;100.00;98229.19;4977700;28;20270;-67
2024/01/03 03:00:19;;;;;;;0.80;0.50;;;;;;;9.01;100.00;98236.66;4969315;28;20195;-68
2024/01/03 03:02:56;;;;;;;1.33;0.70;;;;;;;9.02;100.00;98235.59;4950835;28;20198;-69
2024/01/03 03:05:28;;;;;;;0.80;0.47;;;;;;;9.05;100.00;98235.06;4963565;28;20475;-67
2024/01/03 03:08:04;;;;;;;0.80;0.50;;;;;;;9.07;100.00;98237.50;4971191;28;20206;-68
2024/01/03 03:10:43;;;;;;;0.80;0.52;;;;;;;9.09;100.00;98235.38;4970655;28;21000;-68
2024/01/03 03:13:18;;;;;;;0.80;0.50;;;;;;;9.19;100.00;98234.66;4969588;28;20199;-66
2024/01/03 03:16:09;;;;;;;0.80;0.50;;;;;;;9.20;100.00;98239.78;4967888;28;20481;-68
2024/01/03 03:18:46;;;;;;;0.80;0.40;;;;;;;9.29;100.00;98240.13;4962638;28;20477;-68
2024/01/03 03:21:19;;;;;;;0.80;0.50;;;;;;;9.26;100.00;98236.06;4956447;28;20963;-67
2024/01/03 03:23:52;;;;;;;1.20;0.77;;;;;;;9.20;100.00;98236.28;4972432;28;20250;-67
2024/01/03 03:26:31;;;;;;;0.80;0.40;;;;;;;9.31;100.00;98237.97;4972551;28;20215;-67
2024/01/03 03:29:09;;;;;;;0.93;0.70;;;;;;;9.37;100.00;98239.66;4969403;28;20211;-67
2024/01/03 03:31:47;;;;;;;0.80;0.40;;;;;;;9.27;100.00;98239.56;4987568;28;20511;-67
2024/01/03 03:34:22;;;;;;;0.80;0.50;;;;;;;9.24;100.00;98237.41;4962596;28;20207;-66
2024/01/03 03:36:58;;;;;;;0.80;0.50;;;;;;;9.31;100.00;98244.19;4978654;28;20215;-67
2024/01/03 03:39:32;;;;;;;0.80;0.50;;;;;;;9.27;100.00;98236.88;4960190;28;20447;-66
2024/01/03 03:42:08;;;;;;;0.83;0.50;;;;;;;9.34;100.00;98242.88;4970694;28;20442;-68
2024/01/03 03:44:44;;;;;;;1.52;0.50;;;;;;;9.37;100.00;98236.94;4964201;28;20434;-68
2024/01/03 03:47:19;;;;;;;0.80;0.50;;;;;;;9.41;100.00;98246.16;4952298;28;20199;-68
2024/01/03 03:49:56;;;;;;;0.80;0.50;;;;;;;9.35;100.00;98241.78;4962967;28;20470;-67
2024/01/03 03:52:34;;;;;;;0.80;0.50;;;;;;;9.38;100.00;98249.38;4974723;28;20223;-67
2024/01/03 03:55:10;;;;;;;0.90;0.70;;;;;;;9.39;100.00;98245.63;4969795;28;20463;-66
2024/01/03 03:57:57;;;;;;;0.80;0.40;;;;;;;9.32;100.00;98239.63;4972896;28;20506;-67
2024/01/03 04:00:30;;;;;;;1.53;0.77;;;;;;;9.25;100.00;98244.41;4969883;28;20422;-67
2024/01/03 04:03:08;;;;;;;1.33;0.80;;;;;;;9.12;100.00;98240.25;4980514;28;20428;-67
2024/01/03 04:05:46;;;;;;;0.80;0.50;;;;;;;9.02;100.00;98245.56;4969467;28;20452;-66
2024/01/03 04:08:23;;;;;;;0.80;0.47;;;;;;;8.93;100.00;98241.72;4966719;28;20207;-67
2024/01/03 04:10:59;;;;;;;0.80;0.40;;;;;;;8.99;100.00;98241.50;4964223;28;20433;-67
2024/01/03 04:13:41;;;;;;;0.80;0.40;;;;;;;8.84;100.00;98241.34;4971686;28;20425;-67
2024/01/03 04:16:21;;;;;;;0.80;0.50;;;;;;;8.97;100.00;98251.72;4970120;28;20597;-67
2024/01/03 04:18:59;;;;;;;0.80;0.47;;;;;;;8.94;100.00;98243.34;4974656;28;20290;-67
2024/01/03 04:21:36;;;;;;;0.80;0.50;;;;;;;8.90;100.00;98239.53;4959712;28;20439;-67
2024/01/03 04:24:11;;;;;;;1.42;1.30;;;;;;;8.84;100.00;98249.44;4982008;28;20587;-69
2024/01/03 04:26:48;;;;;;;0.80;0.43;;;;;;;8.80;100.00;98247.53;4992391;28;20210;-68
2024/01/03 04:29:31;;;;;;;0.80;0.40;;;;;;;8.73;100.00;98247.72;4978184;28;20222;-67
2024/01/03 04:32:07;;;;;;;0.80;0.50;;;;;;;8.80;100.00;98242.94;4972897;28;20214;-67
2024/01/03 04:34:45;;;;;;;0.80;0.40;;;;;;;8.93;100.00;98255.19;4975866;28;20199;-67
2024/01/03 04:37:20;;;;;;;0.80;0.40;;;;;;;8.87;100.00;98258.91;4976799;28;20195;-68
2024/01/03 04:39:59;;;;;;;0.80;0.60;;;;;;;8.91;100.00;98262.72;4988142;28;20252;-68
2024/01/03 04:42:40;;;;;;;3.45;0.82;;;;;;;9.02;100.00;98267.94;4979083;28;20425;-68
2024/01/03 04:45:18;;;;;;;0.80;0.50;;;;;;;8.98;100.00;98266.03;4980131;28;20222;-68
2024/01/03 04:47:55;;;;;;;0.80;0.50;;;;;;;8.95;100.00;98266.53;4964569;28;20203;-67
2024/01/03 04:50:28;;;;;;;1.00;0.60;;;;;;;9.00;100.00;98259.31;4978692;28;20198;-69
2024/01/03 04:53:02;;;;;;;0.80;0.50;;;;;;;9.07;100.00;98273.41;4974386;28;20198;-67
2024/01/03 04:55:44;;;;;;;0.80;0.50;;;;;;;9.02;100.00;98270.66;4969051;28;20455;-67
2024/01/03 04:58:24;;;;;;;1.55;0.50;;;;;;;8.97;100.00;98273.31;4979264;28;20207;-67
2024/01/03 05:01:05;;;;;;;0.80;0.50;;;;;;;8.96;100.00;98270.84;4974394;28;20700;-67
2024/01/03 05:03:38;;;;;;;0.80;0.50;;;;;;;9.13;100.00;98279.66;4957574;28;20214;-67
2024/01/03 05:06:13;;;;;;;1.00;0.75;;;;;;;9.14;100.00;98276.72;4971207;28;20218;-69
2024/01/03 05:08:51;;;;;;;0.90;0.52;;;;;;;9.16;100.00;98279.13;4991452;28;20536;-68
2024/01/03 05:11:26;;;;;;;0.95;0.47;;;;;;;9.17;100.00;98275.38;4976957;28;20201;-67
2024/01/03 05:14:01;;;;;;;0.80;0.60;;;;;;;9.26;100.00;98273.00;4977780;28;20266;-68
2024/01/03 05:16:41;;;;;;;0.80;0.43;;;;;;;9.29;100.00;98277.91;4971643;28;20489;-67
2024/01/03 05:19:23;;;;;;;1.00;0.65;;;;;;;9.33;100.00;98271.75;4999059;28;20415;-67
2024/01/03 05:22:00;;;;;;;0.80;0.50;;;;;;;9.37;100.00;98274.72;4972183;28;20194;-67
2024/01/03 05:24:38;;;;;;;0.90;0.60;;;;;;;9.37;100.00;98288.22;4979315;28;20949;-68
2024/01/03 05:27:15;;;;;;;0.90;0.52;;;;;;;9.33;100.00;98282.53;4975287;28;20253;-67
2024/01/03 05:29:58;;;;;;;0.80;0.40;;;;;;;9.46;100.00;98281.28;4976204;28;20281;-67
2024/01/03 05:32:36;;;;;;;0.90;0.50;;;;;;;9.47;100.00;98286.44;5002233;28;20647;-66
2024/01/03 05:35:11;;;;;;;0.80;0.40;;;;;;;9.56;100.00;98278.66;4972048;28;20484;-67
2024/01/03 05:37:51;;;;;;;2.90;0.60;;;;;;;9.56;100.00;98284.88;4973724;28;20556;-68
2024/01/03 05:40:27;;;;;;;0.80;0.50;;;;;;;9.59;100.00;98294.34;4972583;28;20449;-68
2024/01/03 05:43:03;;;;;;;0.80;0.40;;;;;;;9.55;100.00;98285.94;4968498;28;20450;-68
2024/01/03 05:45:41;;;;;;;0.80;0.50;;;;;;;9.72;100.00;98293.91;4971968;28;21012;-68
2024/01/03 05:48:18;;;;;;;0.90;0.70;;;;;;;9.62;100.00;98295.72;4969702;28;20465;-67
2024/01/03 05:51:01;;;;;;;1.00;0.50;;;;;;;9.55;100.00;98295.94;4976691;28;20934;-68
2024/01/03 05:53:36;;;;;;;0.90;0.50;;;;;;;9.48;100.00;98298.03;4961947;28;20458;-67
2024/01/03 05:56:17;;;;;;;0.90;0.60;;;;;;;9.40;100.00;98296.63;4976988;28;20486;-67
2024/01/03 05:58:52;;;;;;;1.10;0.82;;;;;;;9.38;100.00;98304.19;4977623;28;20237;-68
2024/01/03 06:01:31;;;;;;;0.80;0.50;;;;;;;9.38;100.00;98303.34;4967473;28;20191;-66
2024/01/03 06:04:12;;;;;;;1.10;0.70;;;;;;;9.26;100.00;98305.38;4964061;28;21152;-68
2024/01/03 06:06:53;;;;;;;1.52;0.73;;;;;;;9.23;100.00;98306.72;4976331;28;20210;-67
2024/01/03 06:09:28;;;;;;;0.90;0.50;;;;;;;9.23;100.00;98305.91;4979507;28;20211;-67
2024/01/03 06:12:00;;;;;;;0.80;0.40;;;;;;;9.22;100.00;98305.09;4969694;28;20892;-67
2024/01/03 06:14:33;;;;;;;1.57;0.93;;;;;;;9.34;100.00;98313.03;4980188;28;20190;-68
2024/01/03 06:17:08;;;;;;;0.95;0.63;;;;;;;9.39;100.00;98315.78;4974776;28;20425;-68
2024/01/03 06:19:47;;;;;;;4.20;0.50;;;;;;;9.47;100.00;98320.69;4973938;28;20251;-67
2024/01/03 06:22:22;;;;;;;0.80;0.50;;;;;;;9.50;100.00;98333.69;4974978;28;20350;-67
2024/01/03 06:25:00;;;;;;;1.20;0.80;;;;;;;9.54;100.00;98329.38;4976587;28;20265;-66
2024/01/03 06:27:32;;;;;;;0.93;0.50;;;;;;;9.57;100.00;98329.72;4968545;28;20190;-68
2024/01/03 06:30:10;;;;;;;0.80;0.50;;;;;;;9.64;100.00;98345.66;4986511;28;20214;-67
2024/01/03 06:32:56;;;;;;;1.23;0.60;;;;;;;9.71;100.00;98353.56;4972460;28;20967;-67
2024/01/03 06:35:38;;;;;;;0.80;0.50;;;;;;;9.69;100.00;98345.72;4975925;28;20585;-69
2024/01/03 06:38:13;;;;;;;1.10;0.60;;;;;;;9.70;100.00;98357.31;4994123;28;20430;-64
2024/01/03 06:40:54;;;;;;;0.80;0.40;;;;;;;9.69;100.00;98353.81;4981826;28;20504;-64
2024/01/03 06:43:32;;;;;;;1.20;0.60;;;;;;;9.75;100.00;98357.38;4976618;28;20424;-65
2024/01/03 06:46:14;;;;;;;0.80;0.50;;;;;;;9.74;100.00;98361.13;4971614;28;20458;-67
2024/01/03 06:49:00;;;;;;;0.80;0.40;;;;;;;9.77;100.00;98356.06;4986642;28;20478;-66
2024/01/03 06:51:40;;;;;;;0.80;0.40;;;;;;;9.73;100.00;98362.22;4951156;28;20450;-66
2024/01/03 06:54:16;;;;;;;0.90;0.50;;;;;;;9.83;100.00;98365.00;4953696;28;20814;-68
2024/01/03 06:56:54;;;;;;;0.80;0.60;;;;;;;9.72;100.00;98372.22;4957544;28;20451;-66
2024/01/03 06:59:33;;;;;;;0.80;0.50;;;;;;;9.72;100.00;98384.91;4975699;28;21004;-66
2024/01/03 07:02:13;;;;;;;2.70;0.60;;;;;;;9.67;100.00;98380.28;4990315;28;20492;-66
2024/01/03 07:05:03;;;;;;;0.80;0.40;;;;;;;9.57;100.00;98386.41;4967407;28;20436;-65
2024/01/03 07:07:43;;;;;;;1.57;0.70;;;;;;;9.60;100.00;98383.19;4960073;28;20520;-66
2024/01/03 07:10:18;;;;;;;0.80;0.50;;;;;;;9.58;100.00;98392.63;4975336;28;20556;-66
2024/01/03 07:12:53;;;;;;;0.90;0.50;;;;;;;9.55;100.00;98390.41;4974183;28;20424;-65
2024/01/03 07:15:31;;;;;;;1.00;0.80;;;;;;;9.46;100.00;98386.56;4983467;28;20465;-65
2024/01/03 07:18:07;;;;;;;0.80;0.50;;;;;;;9.42;100.00;98386.25;4968727;28;20445;-66
2024/01/03 07:20:53;;;;;;;1.10;0.60;;;;;;;9.41;100.00;98383.81;4978167;28;21240;-66
2024/01/03 07:23:34;;;;;;;0.90;0.50;;;;;;;9.41;100.00;98383.81;4984774;28;20445;-65
2024/01/03 07:26:15;;;;;;;1.53;0.60;;;;;;;9.37;100.00;98386.19;4990283;28;20885;-66
2024/01/03 07:28:57;;;;;;;1.30;0.90;;;;;;;9.48;100.00;98389.81;4981354;28;20498;-66
2024/01/03 07:31:33;;;;;;;2.10;1.90;;;;;;;9.54;100.00;98395.00;4984558;28;20870;-66
2024/01/03 07:34:05;;;;;;;0.87;0.70;;;;;;;9.39;100.00;98383.25;4978557;28;20453;-66
2024/01/03 07:36:43;;;;;;;0.80;0.50;;;;;;;9.44;100.00;98392.19;4982913;28;20453;-66
2024/01/03 07:39:30;;;;;;;0.80;0.40;;;;;;;9.47;100.00;98388.19;4993231;28;20453;-66
2024/01/03 07:42:06;;;;;;;3.05;0.95;;;;;;;9.49;100.00;98394.13;4969258;28;20934;-67
2024/01/03 07:44:49;;;;;;;1.00;0.50;;;;;;;9.60;100.00;98398.56;4970227;28;20584;-65
2024/01/03 07:47:23;;;;;;;5.87;2.10;;;;;;;9.52;100.00;98391.75;4962834;28;21076;-67
2024/01/03 07:50:06;;;;;;;1.53;0.70;;;;;;;9.60;100.00;98398.56;4979415;28;20505;-66
2024/01/03 07:52:40;;;;;;;0.93;0.60;;;;;;;9.67;100.00;98398.34;4974746;28;20460;-66
2024/01/03 07:55:25;;;;;;;3.73;1.13;;;;;;;9.70;100.00;98400.53;4976749;28;20440;-65
2024/01/03 07:58:09;;;;;;;1.00;0.63;;;;;;;9.59;100.00;98395.03;4981463;28;20453;-66
2024/01/03 08:00:48;;;;;;;0.80;0.50;;;;;;;9.58;100.00;98395.31;4976143;28;20887;-65
2024/01/03 08:03:24;;;;;;;0.80;0.47;;;;;;;9.67;100.00;98406.47;4974840;28;20548;-65
2024/01/03 08:06:02;;;;;;;3.67;0.60;;;;;;;9.70;100.00;98409.44;4993172;28;20465;-66
2024/01/03 08:08:44;;;;;;;2.60;0.67;;;;;;;9.72;100.00;98393.81;4978249;28;20499;-65
2024/01/03 08:11:22;;;;;;;0.90;0.50;;;;;;;9.68;100.00;98395.41;4981851;28;21019;-65
2024/01/03 08:13:58;;;;;;;0.90;0.67;;;;;;;9.79;100.00;98404.38;4969894;28;20417;-65
2024/01/03 08:16:42;;;;;;;0.90;0.70;;;;;;;9.72;100.00;98411.91;4949127;28;20441;-66
2024/01/03 08:19:20;;;;;;;0.97;0.70;;;;;;;9.75;100.00;98405.97;4969941;28;20443;-66
2024/01/03 08:22:01;;;;;;;2.20;1.27;;;;;;;9.81;100.00;98405.78;4973438;28;20833;-66
2024/01/03 08:24:35;;;;;;;1.37;0.60;;;;;;;9.81;99.99;98411.19;4964983;28;20497;-66
2024/01/03 08:27:19;;;;;;;5.70;2.70;;;;;;;9.76;99.88;98408.44;4965033;28;20457;-66
2024/01/03 08:29:54;;;;;;;0.80;0.50;;;;;;;9.68;100.00;98413.50;4969450;28;20882;-66
2024/01/03 08:32:28;;;;;;;3.97;0.90;;;;;;;9.87;98.21;98410.16;4976388;28;20446;-65
2024/01/03 08:35:18;;;;;;;0.80;0.50;;;;;;;10.01;98.99;98419.47;4969626;28;20529;-65
2024/01/03 08:37:54;;;;;;;0.90;0.50;;;;;;;10.07;98.37;98422.19;4968913;28;20446;-66
2024/01/03 08:40:28;;;;;;;1.10;0.60;;;;;;;9.95;98.08;98420.47;4972508;28;20477;-65
2024/01/03 08:43:15;;;;;;;0.80;0.40;;;;;;;10.04;97.38;98415.41;4970653;28;20453;-64
2024/01/03 08:45:56;;;;;;;1.23;0.83;;;;;;;10.11;96.63;98426.00;4974601;28;20478;-65
2024/01/03 08:48:34;;;;;;;0.80;0.40;;;;;;;10.19;97.29;98422.84;4976436;28;20483;-64
2024/01/03 08:51:16;;;;;;;0.80;0.40;;;;;;;10.25;95.48;98419.13;4963154;28;20444;-66
2024/01/03 08:54:00;;;;;;;0.80;0.50;;;;;;;10.24;95.13;98422.88;4965756;28;20807;-66
2024/01/03 08:56:39;;;;;;;1.63;0.53;;;;;;;10.23;95.87;98422.06;4980230;28;20503;-65
2024/01/03 08:59:25;;;;;;;0.80;0.47;;;;;;;10.26;95.18;98420.75;4971362;28;20537;-64
2024/01/03 09:01:59;;;;;;;1.10;0.60;;;;;;;10.20;95.36;98424.47;4999697;28;20428;-66
2024/01/03 09:04:34;;;;;;;0.80;0.50;;;;;;;10.32;95.19;98425.09;4977839;28;20420;-66
2024/01/03 09:07:09;;;;;;;3.37;0.60;;;;;;;10.38;95.46;98432.16;4968069;28;20537;-64
2024/01/03 09:10:01;;;;;;;0.80;0.50;;;;;;;10.40;94.32;98433.56;4990514;28;20430;-64
2024/01/03 09:12:39;;;;;;;1.30;0.50;;;;;;;10.39;94.36;98428.41;4970282;28;20550;-65
2024/01/03 09:15:17;;;;;;;1.00;0.70;;;;;;;10.53;93.45;98434.97;4977275;28;20448;-65
2024/01/03 09:18:00;;;;;;;1.10;0.50;;;;;;;10.62;93.25;98440.69;4983158;28;20535;-66
2024/01/03 09:20:37;;;;;;;1.10;0.70;;;;;;;10.63;93.62;98445.03;4971853;28;20454;-66
2024/01/03 09:23:24;;;;;;;0.90;0.60;;;;;;;10.57;93.17;98419.03;4991188;28;20509;-64
2024/01/03 09:25:58;;;;;;;1.47;0.57;;;;;;;10.66;92.12;98434.50;4971614;28;20999;-65
2024/01/03 09:28:35;;;;;;;1.00;0.70;;;;;;;10.60;92.01;98430.13;4977521;28;20955;-63
2024/01/03 09:31:14;;;;;;;2.27;1.90;;;;;;;10.70;92.07;98434.78;4997070;28;20479;-66
2024/01/03 09:33:52;;;;;;;2.33;0.90;;;;;;;10.81;92.06;98431.06;4974057;28;20455;-64
2024/01/03 09:36:29;;;;;;;1.47;0.90;;;;;;;10.69;91.74;98439.41;4998347;28;20475;-63
2024/01/03 09:39:08;;;;;;;0.80;0.50;;;;;;;10.99;90.92;98436.00;4965604;28;20819;-64
2024/01/03 09:41:45;;;;;;;1.80;1.23;;;;;;;11.12;90.37;98437.44;4976997;28;20504;-66
2024/01/03 09:44:26;;;;;;;3.90;0.80;;;;;;;11.18;89.03;98437.16;4989219;28;20557;-66
2024/01/03 09:47:02;;;;;;;2.13;0.70;;;;;;;11.14;87.90;98440.66;4977181;28;20466;-65
2024/01/03 09:49:36;;;;;;;2.10;0.80;;;;;;;11.27;85.74;98440.19;4977492;28;20547;-64
2024/01/03 09:52:16;;;;;;;1.00;0.70;;;;;;;11.53;85.32;98432.94;4983156;28;20442;-64
2024/01/03 09:55:00;;;;;;;0.90;0.50;;;;;;;11.46;84.74;98433.22;4952704;28;20451;-64
2024/01/03 09:57:38;;;;;;;1.10;0.60;;;;;;;11.65;84.73;98447.88;4965930;28;20869;-66
2024/01/03 10:00:23;;;;;;;1.37;0.63;;;;;;;11.79;83.00;98442.78;4989221;28;20437;-65
2024/01/03 10:03:04;;;;;;;1.10;0.70;;;;;;;11.53;84.20;98438.34;4993682;28;20431;-67
2024/01/03 10:05:38;;;;;;;2.30;1.03;;;;;;;11.42;84.67;98440.25;4965940;28;20523;-65
2024/01/03 10:08:18;;;;;;;0.87;0.60;;;;;;;11.46;85.09;98451.34;4971178;28;20548;-65
2024/01/03 10:10:52;;;;;;;1.37;0.57;;;;;;;11.44;84.87;98440.78;4968145;28;20444;-65
2024/01/03 10:13:27;;;;;;;0.90;0.50;;;;;;;11.41;85.64;98427.78;4969985;28;20976;-66
2024/01/03 10:16:08;;;;;;;1.97;0.50;;;;;;;11.40;85.61;98441.56;4975602;28;20455;-66
2024/01/03 10:19:07;;;;;;;1.97;1.73;;;;;;;11.40;85.17;98436.97;4958027;28;20418;-65
2024/01/03 10:21:48;;;;;;;1.07;0.80;;;;;;;11.49;84.32;98440.78;4973669;28;20458;-64
2024/01/03 10:24:28;;;;;;;1.67;0.70;;;;;;;11.73;84.08;98436.53;4952450;28;20446;-66
2024/01/03 10:27:11;;;;;;;1.23;1.13;;;;;;;11.92;84.34;98433.28;4972344;28;20509;-64
2024/01/03 10:29:47;;;;;;;1.03;0.60;;;;;;;11.93;82.49;98443.06;4955228;28;20821;-66
2024/01/03 10:32:30;;;;;;;1.03;0.70;;;;;;;12.16;82.25;98445.22;4974505;28;20924;-64
2024/01/03 10:35:18;;;;;;;0.80;0.40;;;;;;;12.19;81.35;98436.56;4955984;28;21141;-66
2024/01/03 10:37:54;;;;;;;1.20;0.70;;;;;;;12.11;81.37;98428.94;4983764;28;20431;-65
2024/01/03 10:40:40;;;;;;;0.80;0.50;;;;;;;12.12;80.97;98433.31;4982030;28;20434;-65
2024/01/03 10:43:21;;;;;;;0.80;0.40;;;;;;;12.10;81.86;98432.78;4989442;28;20475;-64
2024/01/03 10:46:08;;;;;;;0.87;0.50;;;;;;;11.87;81.63;98433.28;4960761;28;20488;-67
2024/01/03 10:48:50;;;;;;;2.90;0.73;;;;;;;11.90;82.22;98438.19;4960963;28;20445;-65
2024/01/03 10:51:32;;;;;;;0.80;0.50;;;;;;;11.92;81.49;98436.00;4964661;28;20454;-66
2024/01/03 10:54:26;;;;;;;2.13;0.67;;;;;;;11.91;82.59;98437.09;4963760;28;20493;-65
2024/01/03 10:57:01;;;;;;;1.80;0.80;;;;;;;11.80;82.16;98427.34;4972032;28;20483;-65
2024/01/03 10:59:51;;;;;;;1.30;0.70;;;;;;;11.90;83.33;98430.88;4990210;28;20450;-66
2024/01/03 11:02:35;;;;;;;1.33;0.60;;;;;;;11.83;83.11;98426.78;4979054;28;20439;-66
2024/01/03 11:05:22;;;;;;;0.90;0.63;;;;;;;11.61;83.27;98433.25;4959732;28;20888;-63
2024/01/03 11:08:09;;;;;;;3.00;0.53;;;;;;;11.64;84.20;98424.56;4996397;28;20852;-64
2024/01/03 11:10:59;;;;;;;4.20;0.60;;;;;;;11.81;83.15;98429.78;4977014;28;20452;-65
2024/01/03 11:13:44;;;;;;;0.80;0.50;;;;;;;11.98;82.50;98429.50;4990814;28;20463;-65
2024/01/03 11:16:41;;;;;;;1.23;1.13;;;;;;;11.96;82.29;98426.25;4972145;28;20451;-67
2024/01/03 11:19:14;;;;;;;2.63;0.87;;;;;;;12.00;82.80;98428.16;4973509;28;20451;-66
2024/01/03 11:21:54;;;;;;;1.10;1.00;;;;;;;12.20;81.84;98432.75;4982297;28;20491;-66
2024/01/03 11:24:59;;;;;;;1.63;1.13;;;;;;;12.30;82.08;98421.06;4976468;28;20509;-64
2024/01/03 11:27:41;;;;;;;0.80;0.60;;;;;;;12.32;81.11;98419.72;4973588;28;20436;-65
2024/01/03 11:30:48;;;;;;;0.90;0.50;;;;;;;12.44;82.34;98412.09;4964008;28;20469;-64
2024/01/03 11:33:32;;;;;;;2.63;0.47;;;;;;;11.97;82.94;98417.03;4990847;28;20475;-66
2024/01/03 11:36:07;;;;;;;1.53;0.80;;;;;;;12.05;84.62;98411.09;4990628;28;20439;-65
2024/01/03 11:38:57;;;;;;;5.93;1.87;;;;;;;11.89;84.73;98417.59;4966608;28;20520;-66
2024/01/03 11:41:37;;;;;;;0.80;0.50;;;;;;;12.02;85.05;98411.63;4967438;28;20461;-66
2024/01/03 11:44:32;;;;;;;1.27;0.50;;;;;;;12.39;83.94;98414.81;4975247;28;20440;-66
2024/01/03 11:47:11;;;;;;;1.30;0.70;;;;;;;12.32;83.02;98414.31;4971115;28;20450;-68
2024/01/03 11:50:03;;;;;;;2.30;1.80;;;;;;;12.12;83.95;98401.59;4966534;28;20430;-69
2024/01/03 11:52:54;;;;;;;1.60;0.90;;;;;;;12.62;81.13;98414.25;4973817;28;20466;-69
2024/01/03 11:55:33;;;;;;;0.80;0.50;;;;;;;12.68;81.25;98408.81;4971815;28;20797;-69
2024/01/03 11:58:18;;;;;;;1.00;0.70;;;;;;;12.40;81.34;98402.91;4970984;28;20458;-68
2024/01/03 12:00:57;;;;;;;0.90;0.60;;;;;;;12.34;81.81;98400.50;4961506;28;20434;-68
2024/01/03 12:03:35;;;;;;;1.03;0.87;;;;;;;12.45;82.56;98408.31;4981532;28;20438;-69
2024/01/03 12:06:15;;;;;;;2.97;1.73;;;;;;;12.60;81.81;98396.63;4990179;28;20545;-70
2024/01/03 12:08:50;;;;;;;1.73;0.77;;;;;;;12.40;82.20;98400.19;4986629;28;20459;-68
2024/01/03 12:11:26;;;;;;;1.00;0.60;;;;;;;12.40;83.32;98408.31;4958939;28;20460;-69
2024/01/03 12:14:12;;;;;;;3.00;0.93;;;;;;;12.61;82.97;98406.38;4976929;28;20455;-70
2024/01/03 12:19:47;;;;;;;2.30;0.80;;;;;;;12.72;82.06;98407.19;4961512;28;20970;-69
2024/01/03 12:22:32;;;;;;;1.70;0.90;;;;;;;12.95;81.66;98401.13;4976163;28;20423;-69
2024/01/03 12:25:21;;;;;;;0.80;0.50;;;;;;;12.59;82.33;98403.94;4995045;28;20479;-70
2024/01/03 12:27:58;;;;;;;1.10;0.87;;;;;;;12.50;83.13;98405.59;4974637;28;20444;-71
2024/01/03 12:30:38;;;;;;;0.80;0.47;;;;;;;12.78;82.03;98403.38;4995988;28;20953;-69
2024/01/03 12:33:19;;;;;;;2.40;0.70;;;;;;;12.17;84.99;98400.75;4980528;28;21071;-69